Decoded Metar for KPBH (PHILLIPS/PRICE in WI, USA) (IATA:PBH) | Meteo·Mobile Aviation Weather
aviador You're here:

KPBH Decoded Metar

PHILLIPS/PRICE in WI, USA
Report Time2019-02-16 17:35:00
UTC Time2019-02-16 17:44:34
Flight Rules vfr VFR
WindCalm
Visibility9999 m
Phenomena:N/A
Clouds:N/A
Expected CloudBase > 1,200 ft AGL from Temp-Dew spread
CeilingNone
Temp-11°C (ISA -23)
Dew Point-14°C (79% RH)
AAT-14.3°C
QNH1020 hPa
Density Alt-1,614 ft
Elevation1,473 ft
Report Wrong Elevation
Raw Report
KPBH 161735Z AUTO 00000KT 10SM CLR M11/M14 A3013 RMK AO2
T11081145=

Extra information for KPBH:More info

Metar Taf Metar & Taf Last 4 Metars F.Rules Stats Wind Profile Meteogram Temp Stats Airport Information Weather charts Add Link Nearby VenuesMetar ALERT Operation Metar Decoded Social comments

AIRNAV info for KPBH